Details From LIRA - Ciampino
To LIBD - Bari Palese Macchie
Flight Number -
Tags Standard
Created
Modified
Stats Distance 215 nm / 398 km
Max Altitude 28,100 ft / 8,565 m
Waypoints 7
Social Downloads 17
Likes 0
Share VATSIM

Download

Looking for another format? Having issues loading an existing format? Contact us
Advertisement - Login to hide

Notes

None

Route

+41.790_+012.600 LIRA CIA PRA NEBAS VEBOX LIBD

ID Type Via Altitude Latitude Longitude Leg Dist Tot Dist Heading (true) Name
O +41.790_+012.600 LATLON - 0 ft / 0 m 41.79049˚ 12.60094˚ - 0 nm - -
LIRA APT - 427 ft / 130 m 41.79923˚ 12.59492˚ 0 nm 0 nm 333° / 333° CIAMPINO
CIA NDB - 2,000 ft / 610 m 41.86494˚ 12.56081˚ 4 nm 4 nm 339° / 339° CIAMPINO NDB
PRA NDB - 6,800 ft / 2,073 m 41.67972˚ 12.45283˚ 12 nm 16 nm 204° / 203° PRATICA DI MARE NDB
NEBAS FIX - 28,100 ft / 8,565 m 41.30417˚ 14.49139˚ 94 nm 111 nm 103° / 104° -
VEBOX FIX - 15,200 ft / 4,633 m 41.15000˚ 15.52972˚ 47 nm 159 nm 101° / 102° -
O LIBD APT - 177 ft / 54 m 41.13848˚ 16.76048˚ 55 nm 214 nm 90° / 91° Bari Palese Macchie

Altitude Profile

Advertisement - Login to hide

Weather


0- 5 10 15 20 25 30 35+ Temperature / ° C

Clouds and Precipitation
Forecast for 2017-12-11 18:00 UTC. Updated 21 minutes ago

Ground ~20,000 ft ~40,000 ft Winds

LIRA

Details ICAO LIRA (CIA)
Name CIAMPINO
Region Italy
Timezone Europe/Rome (UTC+1.0)
Stats Elevation 427 ft / 130 m (AMSL)
Location 41.799228° 12.594917°
Runways 1
Magnetic Variation 3.057° E

METAR

LIRA 111720Z 16019G31KT 9999 BKN015 14/10 Q1007

Decode

TAF

TAF LIRA 111100Z 1112/1212 17015G25KT 9999 SCT018 SCT040 BECMG 1116/1108 VRB06KT

Decode

Departure Runways

ID Width Length Bearing (true) Bearing (mag) Surface Threshold Offset Overrun Length
15 154 ft / 47 m 7,246 ft / 2,209 m 152.79° 149.73° Asphalt 0 ft / 0 m 0 ft / 0 m
33 154 ft / 47 m 7,246 ft / 2,209 m 332.80° 329.74° Asphalt 0 ft / 0 m 0 ft / 0 m

LIBD

Details ICAO LIBD (BRI)
Name Bari Palese Macchie
Region Italy
Timezone Europe/Rome (UTC+1.0)
Stats Elevation 177 ft / 54 m (AMSL)
Location 41.137865° 16.758318°
Runways 1
Magnetic Variation 3.736° E

METAR

LIBD 111720Z 18008G18KT 150V210 9999 FEW040 13/10 Q1013

Decode

TAF

TAF LIBD 111100Z 1112/1212 19018G28KT 9999 SCT030 BECMG 1201/1203 19015KT

Decode

Destination Runways

ID Width Length Bearing (true) Bearing (mag) Surface Threshold Offset Overrun Length
07 148 ft / 45 m 9,262 ft / 2,823 m 69.39° 65.65° Asphalt 1,257 ft / 383 m 0 ft / 0 m
25 148 ft / 45 m 9,262 ft / 2,823 m 249.42° 245.68° Asphalt 0 ft / 0 m 194 ft / 59 m

Approach Navaids

Runway Type Ident Frequency Range Bearing (true) Bearing (mag) Slope Elevation
07 Localiser BAP 111.35 MHz 18 nm / 33 km 69.25° 65.51° - 177 ft / 54 m (AMSL)
07 Glidescope BAP 111.35 MHz 10 nm / 19 km 69.25° 65.51° 3.32° 177 ft / 54 m (AMSL)
07 DME BAP 111.35 MHz 18 nm / 33 km - - - 183 ft / 56 m (AMSL)

Popular Alternatives